createdAt,value
2022-10-06T00:02:19.172Z,101507.47
2022-10-06T00:04:46.724Z,101524.66
2022-10-06T00:07:14.163Z,101546.28
2022-10-06T00:09:40.982Z,101532.38
2022-10-06T00:12:09.190Z,101503.44
2022-10-06T00:14:36.228Z,101536.44
2022-10-06T00:17:02.948Z,101464.34
2022-10-06T00:19:29.397Z,101457.50
2022-10-06T00:21:55.794Z,101548.84
2022-10-06T00:24:22.183Z,101514.53
2022-10-06T00:26:48.591Z,101525.75
2022-10-06T00:29:15.088Z,101528.31
2022-10-06T00:31:41.808Z,101571.00
2022-10-06T00:34:08.297Z,101562.31
2022-10-06T00:36:34.687Z,101580.69
2022-10-06T00:39:01.158Z,101560.72
2022-10-06T00:41:27.575Z,101567.19
2022-10-06T00:43:59.464Z,101596.06
2022-10-06T00:46:35.190Z,101583.06
2022-10-06T00:49:13.816Z,101598.97
2022-10-06T00:51:45.623Z,101604.34
2022-10-06T00:54:12.573Z,101582.13
2022-10-06T00:56:40.430Z,101530.31
2022-10-06T00:59:15.933Z,101584.78
2022-10-06T01:01:51.993Z,101617.00
2022-10-06T01:04:18.789Z,101554.09
2022-10-06T01:06:50.789Z,101577.09
2022-10-06T01:09:18.363Z,101598.09
2022-10-06T01:11:48.323Z,101609.50
2022-10-06T01:14:15.282Z,101612.75
2022-10-06T01:16:43.415Z,101636.94
2022-10-06T01:19:32.912Z,101649.47
2022-10-06T01:22:05.717Z,101657.16
2022-10-06T01:24:32.912Z,101640.63
2022-10-06T01:27:01.224Z,101607.75
2022-10-06T01:29:28.003Z,101634.63
2022-10-06T01:31:55.509Z,101675.56
2022-10-06T01:34:21.847Z,101664.31
2022-10-06T01:36:48.199Z,101664.63
2022-10-06T01:39:14.573Z,101680.41
2022-10-06T01:41:40.882Z,101674.44
2022-10-06T01:44:07.189Z,101659.94
2022-10-06T01:46:33.748Z,101649.22
2022-10-06T01:49:00.258Z,101668.44
2022-10-06T01:51:26.541Z,101677.00
2022-10-06T01:53:52.937Z,101676.44
2022-10-06T01:56:20.987Z,101661.59
2022-10-06T01:58:48.310Z,101685.63
2022-10-06T02:01:15.127Z,101692.06
2022-10-06T02:03:41.853Z,101703.41
2022-10-06T02:06:09.150Z,101700.75
2022-10-06T02:08:35.655Z,101695.03
2022-10-06T02:11:09.044Z,101707.91
2022-10-06T02:13:36.237Z,101696.47
2022-10-06T02:16:03.175Z,101706.31
2022-10-06T02:18:30.005Z,101717.81
2022-10-06T02:20:56.616Z,101718.72
2022-10-06T02:23:23.023Z,101702.72
2022-10-06T02:25:49.391Z,101737.41
2022-10-06T02:28:16.797Z,101673.47
2022-10-06T02:30:43.588Z,101729.38
2022-10-06T02:33:09.912Z,101738.06
2022-10-06T02:35:36.262Z,101698.03
2022-10-06T02:38:02.728Z,101731.13
2022-10-06T02:40:29.103Z,101732.03
2022-10-06T02:42:55.432Z,101724.38
2022-10-06T02:45:21.774Z,101676.84
2022-10-06T02:47:48.123Z,101681.03
2022-10-06T02:50:14.465Z,101771.38
2022-10-06T02:52:42.835Z,101780.38
2022-10-06T02:55:09.780Z,101714.63
2022-10-06T02:57:36.114Z,101754.75
2022-10-06T03:00:04.439Z,101791.22
2022-10-06T03:02:31.241Z,101782.69
2022-10-06T03:04:57.629Z,101781.03
2022-10-06T03:07:24.108Z,101789.69
2022-10-06T03:09:50.457Z,101716.84
2022-10-06T03:12:16.800Z,101811.69
2022-10-06T03:14:43.115Z,101778.84
2022-10-06T03:17:10.096Z,101815.25
2022-10-06T03:19:37.259Z,101709.81
2022-10-06T03:22:04.693Z,101829.41
2022-10-06T03:24:31.853Z,101810.41
2022-10-06T03:26:58.426Z,101774.16
2022-10-06T03:29:24.831Z,101823.59
2022-10-06T03:31:51.237Z,101822.16
2022-10-06T03:34:17.580Z,101725.66
2022-10-06T03:36:44.275Z,101802.13
2022-10-06T03:39:10.723Z,101837.94
2022-10-06T03:41:38.448Z,101858.94
2022-10-06T03:44:05.416Z,101871.22
2022-10-06T03:46:34.481Z,101869.44
2022-10-06T03:49:01.617Z,101865.25
2022-10-06T03:51:32.758Z,101850.50
2022-10-06T03:53:59.870Z,101883.63
2022-10-06T03:56:29.110Z,101895.81
2022-10-06T03:59:00.378Z,101898.44
2022-10-06T04:01:29.743Z,101884.41
2022-10-06T04:03:58.422Z,101901.06
2022-10-06T04:06:26.597Z,101892.56
2022-10-06T04:08:54.120Z,101910.91
2022-10-06T04:11:26.683Z,101921.34
2022-10-06T04:13:57.977Z,101918.78
2022-10-06T04:16:27.497Z,101892.78
2022-10-06T04:18:59.507Z,101905.09
2022-10-06T04:21:27.574Z,101852.06
2022-10-06T04:23:54.783Z,101919.13
2022-10-06T04:26:23.411Z,101887.03
2022-10-06T04:28:50.673Z,101913.34
2022-10-06T04:31:19.910Z,101936.75
2022-10-06T04:33:47.783Z,101918.56
2022-10-06T04:36:17.001Z,101950.81
2022-10-06T04:38:43.403Z,101925.75
2022-10-06T04:41:15.935Z,101941.34
2022-10-06T04:43:42.486Z,101958.00
2022-10-06T04:46:37.716Z,101937.16
2022-10-06T04:48:56.624Z,101966.75
2022-10-06T04:51:25.922Z,101935.41
2022-10-06T04:53:53.017Z,101931.91
2022-10-06T04:56:27.337Z,101965.09
2022-10-06T04:58:54.618Z,101968.75
2022-10-06T05:01:28.336Z,101970.41
2022-10-06T05:03:57.086Z,101960.81
2022-10-06T05:06:30.174Z,101984.44
2022-10-06T05:09:06.067Z,101959.41
2022-10-06T05:11:33.217Z,101926.31
2022-10-06T05:13:59.916Z,101966.31
2022-10-06T05:16:28.209Z,101995.03
2022-10-06T05:18:54.592Z,101970.84
2022-10-06T05:21:23.979Z,101993.47
2022-10-06T05:23:50.686Z,102006.53
2022-10-06T05:26:20.241Z,102013.53
2022-10-06T05:28:46.660Z,101986.63
2022-10-06T05:31:22.104Z,102016.19
2022-10-06T05:33:49.418Z,102018.75
2022-10-06T05:36:20.678Z,102009.25
2022-10-06T05:38:47.230Z,102007.63
2022-10-06T05:41:16.072Z,102038.94
2022-10-06T05:43:42.721Z,101979.75
2022-10-06T05:46:20.114Z,102049.53
2022-10-06T05:48:47.845Z,102054.72
2022-10-06T05:51:14.905Z,102054.69
2022-10-06T05:53:41.662Z,102037.41
2022-10-06T05:56:18.311Z,102067.13
2022-10-06T05:58:49.778Z,102059.34
2022-10-06T06:01:27.747Z,102052.31
2022-10-06T06:03:59.295Z,102067.44
2022-10-06T06:06:32.935Z,102067.38
2022-10-06T06:09:06.760Z,102055.06
2022-10-06T06:11:34.846Z,102070.88
2022-10-06T06:14:07.079Z,102074.28
2022-10-06T06:16:34.541Z,102091.66
2022-10-06T06:19:01.537Z,102093.41
2022-10-06T06:21:29.132Z,102011.56
2022-10-06T06:23:56.127Z,102093.47
2022-10-06T06:26:28.073Z,102053.38
2022-10-06T06:29:03.812Z,102101.28
2022-10-06T06:31:32.570Z,102109.19
2022-10-06T06:34:01.347Z,102071.72
2022-10-06T06:36:35.643Z,102015.06
2022-10-06T06:39:04.067Z,102115.28
2022-10-06T06:41:32.929Z,102102.09
2022-10-06T06:44:00.215Z,102124.81
2022-10-06T06:46:31.710Z,102127.59
2022-10-06T06:49:04.439Z,102103.19
2022-10-06T06:51:35.175Z,102124.91
2022-10-06T06:54:02.609Z,102047.22
2022-10-06T06:56:35.049Z,102140.44
2022-10-06T06:59:06.521Z,102103.88
2022-10-06T07:01:32.878Z,102102.13
2022-10-06T07:03:59.572Z,102149.28
2022-10-06T07:06:28.843Z,102142.25
2022-10-06T07:08:58.114Z,102162.44
2022-10-06T07:11:30.971Z,102143.19
2022-10-06T07:14:04.144Z,102144.13
2022-10-06T07:16:50.185Z,102149.19
2022-10-06T07:19:37.489Z,102109.13
2022-10-06T07:22:28.311Z,102187.56
2022-10-06T07:25:07.022Z,102121.31
2022-10-06T07:27:42.151Z,102197.03
2022-10-06T07:30:11.482Z,102196.13
2022-10-06T07:32:38.272Z,102137.72
2022-10-06T07:35:06.458Z,102203.09
2022-10-06T07:37:36.053Z,102194.34
2022-10-06T07:40:05.326Z,102197.81
2022-10-06T07:42:47.711Z,102199.38
2022-10-06T07:45:45.148Z,102203.03
2022-10-06T07:48:14.735Z,102219.41
2022-10-06T07:50:42.875Z,102221.38
2022-10-06T07:53:09.235Z,102221.31
2022-10-06T07:55:40.115Z,102225.53
2022-10-06T07:58:23.818Z,102215.94
2022-10-06T08:00:52.889Z,102223.56
2022-10-06T08:03:19.993Z,102213.00
2022-10-06T08:05:57.030Z,102211.94
2022-10-06T08:08:24.067Z,102145.72
2022-10-06T08:10:55.734Z,102217.13
2022-10-06T08:13:22.350Z,102190.09
2022-10-06T08:15:51.623Z,102199.47
2022-10-06T08:18:34.121Z,102249.16
2022-10-06T08:21:11.420Z,102203.88
2022-10-06T08:23:40.403Z,102210.81
2022-10-06T08:26:06.726Z,102196.06
2022-10-06T08:28:33.211Z,102256.44
2022-10-06T08:31:04.775Z,102255.25
2022-10-06T08:33:31.427Z,102267.28
2022-10-06T08:36:13.607Z,102257.63
2022-10-06T08:38:41.287Z,102247.00
2022-10-06T08:41:17.878Z,102246.91
2022-10-06T08:43:48.821Z,102279.31
2022-10-06T08:46:17.105Z,102248.63
2022-10-06T08:48:45.311Z,102260.91
2022-10-06T08:51:49.432Z,102276.31
2022-10-06T08:54:29.805Z,102247.28
2022-10-06T08:57:11.400Z,102285.56
2022-10-06T08:59:37.813Z,102243.22
2022-10-06T09:02:21.748Z,102279.75
2022-10-06T09:04:49.581Z,102235.06
2022-10-06T09:07:24.933Z,102274.28
2022-10-06T09:10:03.506Z,102263.84
2022-10-06T09:12:42.073Z,102306.16
2022-10-06T09:15:20.602Z,102306.84
2022-10-06T09:18:03.007Z,102308.97
2022-10-06T09:20:54.764Z,102293.84
2022-10-06T09:23:41.051Z,102318.31
2022-10-06T09:26:15.639Z,102325.63
2022-10-06T09:28:46.131Z,102327.16
2022-10-06T09:31:26.706Z,102330.19
2022-10-06T09:33:59.363Z,102329.38
2022-10-06T09:36:26.119Z,102288.50
2022-10-06T09:38:57.679Z,102318.59
2022-10-06T09:41:26.645Z,102338.09
2022-10-06T09:44:03.313Z,102330.78
2022-10-06T09:46:35.164Z,102277.84
2022-10-06T09:49:07.671Z,102331.28
2022-10-06T09:51:36.400Z,102341.38
2022-10-06T09:54:11.083Z,102280.41
2022-10-06T09:56:46.961Z,102346.25
2022-10-06T09:59:30.528Z,102328.72
2022-10-06T10:01:59.634Z,102330.50
2022-10-06T10:04:37.696Z,102329.50
2022-10-06T10:07:25.265Z,102285.72
2022-10-06T10:10:17.684Z,102293.38
2022-10-06T10:12:58.415Z,102333.22
2022-10-06T10:15:31.194Z,102330.47
2022-10-06T10:18:03.096Z,102340.81
2022-10-06T10:20:40.105Z,102339.94
2022-10-06T10:23:31.072Z,102287.16
2022-10-06T10:26:32.199Z,102339.66
2022-10-06T10:29:15.834Z,102316.97
2022-10-06T10:32:07.543Z,102322.25
2022-10-06T10:34:49.197Z,102329.88
2022-10-06T10:37:33.679Z,102339.53
2022-10-06T10:40:29.602Z,102313.13
2022-10-06T10:42:58.871Z,102298.31
2022-10-06T10:45:32.348Z,102315.34
2022-10-06T10:48:01.303Z,102324.13
2022-10-06T10:51:20.362Z,102300.16
2022-10-06T10:54:01.116Z,102343.50
2022-10-06T10:56:31.550Z,102332.59
2022-10-06T10:59:13.791Z,102348.63
2022-10-06T11:01:50.191Z,102300.59
2022-10-06T11:04:16.762Z,102317.72
2022-10-06T11:07:10.270Z,102352.41
2022-10-06T11:09:48.139Z,102329.56
2022-10-06T11:12:26.608Z,102300.22
2022-10-06T11:15:19.668Z,102348.72
2022-10-06T11:17:50.119Z,102314.13
2022-10-06T11:20:38.696Z,102352.81
2022-10-06T11:23:22.212Z,102349.50
2022-10-06T11:25:51.515Z,102354.75
2022-10-06T11:28:22.779Z,102355.81
2022-10-06T11:31:34.422Z,102349.00
2022-10-06T11:34:03.283Z,102312.75
2022-10-06T11:36:29.766Z,102354.91
2022-10-06T11:39:07.089Z,102326.97
2022-10-06T11:41:42.415Z,102288.75
2022-10-06T11:44:17.922Z,102343.91
2022-10-06T11:46:59.642Z,102341.28
2022-10-06T11:49:29.118Z,102346.00
2022-10-06T11:52:08.656Z,102338.84
2022-10-06T11:54:54.943Z,102345.34
2022-10-06T11:57:30.333Z,102343.41
2022-10-06T11:59:57.097Z,102332.84
2022-10-06T12:02:32.797Z,102333.16
2022-10-06T12:05:54.790Z,102337.59
2022-10-06T12:08:12.837Z,102297.81
2022-10-06T12:10:49.397Z,102276.94
2022-10-06T12:14:26.591Z,102325.44
2022-10-06T12:19:49.612Z,102278.31
2022-10-06T12:22:24.281Z,102316.72
2022-10-06T12:25:02.993Z,102330.94
2022-10-06T12:27:38.348Z,102308.59
2022-10-06T12:30:15.127Z,102302.16
2022-10-06T12:32:53.506Z,102295.22
2022-10-06T12:35:25.214Z,102286.75
2022-10-06T12:37:58.192Z,102300.16
2022-10-06T12:40:43.707Z,102311.50
2022-10-06T12:43:14.209Z,102307.59
2022-10-06T12:45:46.238Z,102308.25
2022-10-06T12:48:24.124Z,102212.25
2022-10-06T12:50:58.198Z,102282.84
2022-10-06T12:53:32.895Z,102304.22
2022-10-06T12:56:04.040Z,102294.47
2022-10-06T12:58:33.303Z,102258.00
2022-10-06T13:01:01.498Z,102264.06
2022-10-06T13:03:29.320Z,102280.72
2022-10-06T13:06:03.136Z,102282.22
2022-10-06T13:08:32.589Z,102311.50
2022-10-06T13:11:17.724Z,102305.16
2022-10-06T13:13:53.090Z,102300.31
2022-10-06T13:16:30.702Z,102285.66
2022-10-06T13:18:59.065Z,102315.09
2022-10-06T13:21:26.198Z,102192.28
2022-10-06T13:23:52.787Z,102294.25
2022-10-06T13:26:26.633Z,102255.38
2022-10-06T13:28:55.384Z,102294.03
2022-10-06T13:31:36.553Z,102273.66
2022-10-06T13:34:09.274Z,102288.19
2022-10-06T13:36:38.825Z,102293.31
2022-10-06T13:39:06.812Z,102285.94
2022-10-06T13:41:37.978Z,102279.28
2022-10-06T13:44:14.074Z,102278.97
2022-10-06T13:46:48.865Z,102273.53
2022-10-06T13:49:26.271Z,102287.78
2022-10-06T13:51:54.552Z,102293.16
2022-10-06T13:54:32.900Z,102242.75
2022-10-06T13:56:59.343Z,102272.41
2022-10-06T13:59:32.764Z,102204.88
2022-10-06T14:02:24.673Z,102252.91
2022-10-06T14:05:19.098Z,102289.13
2022-10-06T14:07:46.991Z,102288.03
2022-10-06T14:13:00.898Z,102284.53
2022-10-06T14:15:30.917Z,102292.59
2022-10-06T14:18:02.192Z,102272.44
2022-10-06T14:20:42.763Z,102288.59
2022-10-06T14:23:42.101Z,102294.34
2022-10-06T14:26:13.368Z,102249.53
2022-10-06T14:28:40.940Z,102272.56
2022-10-06T14:31:12.006Z,102273.50
2022-10-06T14:33:40.550Z,102282.84
2022-10-06T14:36:12.870Z,102262.78
2022-10-06T14:38:39.406Z,102260.81
2022-10-06T14:41:06.271Z,102284.06
2022-10-06T14:43:32.792Z,102275.50
2022-10-06T14:46:02.629Z,102243.94
2022-10-06T14:48:31.907Z,102279.47
2022-10-06T14:51:02.782Z,102243.97
2022-10-06T14:53:29.124Z,102242.59
2022-10-06T14:56:01.869Z,102282.34
2022-10-06T14:58:28.175Z,102270.84
2022-10-06T15:00:54.691Z,102176.75
2022-10-06T15:03:21.297Z,102269.41
2022-10-06T15:06:06.302Z,102266.19
2022-10-06T15:08:32.647Z,102278.03
2022-10-06T15:11:01.781Z,102276.78
2022-10-06T15:13:29.568Z,102223.91
2022-10-06T15:15:58.979Z,102170.22
2022-10-06T15:18:26.068Z,102257.44
2022-10-06T15:20:52.773Z,102277.38
2022-10-06T15:23:19.106Z,102266.97
2022-10-06T15:26:11.234Z,102269.84
2022-10-06T15:28:56.047Z,102252.78
2022-10-06T15:31:24.066Z,102258.31
2022-10-06T15:33:53.241Z,102270.59
2022-10-06T15:36:22.176Z,102272.44
2022-10-06T15:38:48.543Z,102234.09
2022-10-06T15:41:14.950Z,102245.84
2022-10-06T15:43:57.045Z,102233.88
2022-10-06T15:46:29.872Z,102255.31
2022-10-06T15:49:02.222Z,102242.59
2022-10-06T15:51:30.947Z,102249.72
2022-10-06T15:53:58.296Z,102286.66
2022-10-06T15:56:26.220Z,102245.16
2022-10-06T15:58:52.746Z,102229.78
2022-10-06T16:01:26.384Z,102267.66
2022-10-06T16:03:53.373Z,102188.44
2022-10-06T16:06:29.893Z,102269.31
2022-10-06T16:08:56.231Z,102262.16
2022-10-06T16:11:22.558Z,102245.06
2022-10-06T16:13:48.882Z,102270.25
2022-10-06T16:16:15.242Z,102218.00
2022-10-06T16:18:41.637Z,102248.66
2022-10-06T16:21:07.962Z,102256.47
2022-10-06T16:23:34.299Z,102247.25
2022-10-06T16:26:03.727Z,102278.06
2022-10-06T16:28:30.162Z,102231.44
2022-10-06T16:30:56.636Z,102206.91
2022-10-06T16:33:23.111Z,102207.28
2022-10-06T16:35:56.412Z,102260.03
2022-10-06T16:38:24.027Z,102227.50
2022-10-06T16:41:04.034Z,102264.53
2022-10-06T16:43:36.284Z,102237.28
2022-10-06T16:46:05.624Z,102267.78
2022-10-06T16:48:34.830Z,102268.25
2022-10-06T16:51:03.019Z,102264.03
2022-10-06T16:53:33.989Z,102249.31
2022-10-06T16:56:00.385Z,102232.25
2022-10-06T16:58:26.727Z,102266.41
2022-10-06T17:00:59.184Z,102249.00
2022-10-06T17:03:25.656Z,102266.94
2022-10-06T17:05:51.991Z,102261.09
2022-10-06T17:08:22.461Z,102274.06
2022-10-06T17:11:00.643Z,102239.63
2022-10-06T17:13:27.201Z,102082.63
2022-10-06T17:16:01.224Z,102192.16
2022-10-06T17:18:27.880Z,102261.25
2022-10-06T17:20:55.727Z,102194.16
2022-10-06T17:23:22.424Z,102252.69
2022-10-06T17:26:00.023Z,102281.44
2022-10-06T17:28:26.611Z,102276.25
2022-10-06T17:30:53.797Z,102267.25
2022-10-06T17:33:20.275Z,102269.28
2022-10-06T17:35:46.618Z,102257.91
2022-10-06T17:38:12.993Z,102260.72
2022-10-06T17:40:43.739Z,102269.50
2022-10-06T17:43:10.421Z,102259.00
2022-10-06T17:45:40.154Z,102155.75
2022-10-06T17:48:06.588Z,102270.75
2022-10-06T17:50:33.176Z,102200.38
2022-10-06T17:52:59.523Z,102165.59
2022-10-06T17:55:27.998Z,102263.88
2022-10-06T17:57:58.446Z,102270.81
2022-10-06T18:00:25.547Z,102100.75
2022-10-06T18:03:00.253Z,102167.03
2022-10-06T18:05:32.155Z,102229.94
2022-10-06T18:08:00.614Z,102274.59
2022-10-06T18:10:45.463Z,102247.50
2022-10-06T18:13:11.997Z,102247.28
2022-10-06T18:15:38.445Z,102224.84
2022-10-06T18:18:04.883Z,102268.38
2022-10-06T18:20:33.988Z,102254.59
2022-10-06T18:23:00.341Z,102169.22
2022-10-06T18:25:27.845Z,102253.94
2022-10-06T18:27:54.924Z,102252.25
2022-10-06T18:30:23.726Z,102241.78
2022-10-06T18:38:28.772Z,102269.44
2022-10-06T18:41:00.715Z,102238.13
2022-10-06T18:43:27.744Z,102270.50
2022-10-06T18:46:13.366Z,102252.19
2022-10-06T18:48:58.224Z,102274.84
2022-10-06T18:51:29.856Z,102275.84
2022-10-06T18:54:01.352Z,102255.31
2022-10-06T18:56:31.135Z,102177.13
2022-10-06T18:58:59.772Z,102263.25
2022-10-06T19:01:28.315Z,102248.44
2022-10-06T19:04:04.747Z,102159.63
2022-10-06T19:06:32.721Z,102263.31
2022-10-06T19:09:00.814Z,102186.00
2022-10-06T19:11:51.001Z,102261.66
2022-10-06T19:14:21.661Z,102241.53
2022-10-06T19:16:52.557Z,102265.34
2022-10-06T19:19:19.872Z,102273.28
2022-10-06T19:21:59.315Z,102209.75
2022-10-06T19:24:28.431Z,102223.69
2022-10-06T19:26:56.493Z,102267.25
2022-10-06T19:29:27.352Z,102246.38
2022-10-06T19:31:59.412Z,102240.38
2022-10-06T19:34:26.497Z,102149.97
2022-10-06T19:36:53.323Z,102244.97
2022-10-06T19:39:22.897Z,102133.66
2022-10-06T19:42:07.904Z,102154.66
2022-10-06T19:44:41.952Z,102275.03
2022-10-06T19:47:13.119Z,102278.56
2022-10-06T19:49:42.759Z,102249.75
2022-10-06T19:52:12.335Z,102250.69
2022-10-06T19:54:39.443Z,102213.28
2022-10-06T19:57:06.913Z,102249.88
2022-10-06T19:59:33.328Z,102240.31
2022-10-06T20:02:00.773Z,102263.06
2022-10-06T20:04:27.258Z,102240.44
2022-10-06T20:06:53.943Z,102221.31
2022-10-06T20:09:22.730Z,102268.34
2022-10-06T20:11:51.149Z,102270.16
2022-10-06T20:14:21.229Z,102167.47
2022-10-06T20:16:50.481Z,102268.63
2022-10-06T20:19:18.279Z,102261.69
2022-10-06T20:21:44.958Z,102256.56
2022-10-06T20:24:15.151Z,102178.19
2022-10-06T20:26:43.252Z,102040.59
2022-10-06T20:29:12.406Z,102198.53
2022-10-06T20:31:44.778Z,102277.97
2022-10-06T20:34:14.638Z,102122.84
2022-10-06T20:36:41.919Z,102258.75
2022-10-06T20:39:31.527Z,102280.59
2022-10-06T20:41:58.057Z,102168.09
2022-10-06T20:44:24.935Z,102269.25
2022-10-06T20:46:52.046Z,102159.63
2022-10-06T20:49:18.475Z,102279.97
2022-10-06T20:51:47.321Z,102258.91
2022-10-06T20:54:22.088Z,102270.25
2022-10-06T20:56:50.843Z,102057.59
2022-10-06T20:59:19.180Z,102266.13
2022-10-06T21:01:46.051Z,102115.59
2022-10-06T21:04:15.435Z,102173.06
2022-10-06T21:06:42.086Z,102247.19
2022-10-06T21:09:12.908Z,102271.56
2022-10-06T21:11:41.795Z,102233.97
2022-10-06T21:14:12.199Z,102269.63
2022-10-06T21:16:42.309Z,102266.22
2022-10-06T21:19:14.702Z,102016.84
2022-10-06T21:21:43.225Z,102233.09
2022-10-06T21:24:09.869Z,102227.91
2022-10-06T21:26:38.685Z,102254.91
2022-10-06T21:29:05.586Z,102224.41
2022-10-06T21:31:33.198Z,102257.59
2022-10-06T21:34:01.447Z,102225.25
2022-10-06T21:36:32.231Z,102248.06
2022-10-06T21:39:01.145Z,102245.41
2022-10-06T21:41:37.544Z,102247.03
2022-10-06T21:44:17.696Z,102229.50
2022-10-06T21:46:49.959Z,102202.66
2022-10-06T21:49:18.799Z,102236.69
2022-10-06T21:51:48.552Z,102217.47
2022-10-06T21:54:15.591Z,102222.81
2022-10-06T21:56:42.721Z,102224.69
2022-10-06T21:59:09.356Z,102158.41
2022-10-06T22:01:38.149Z,102176.66
2022-10-06T22:04:05.721Z,102188.91
2022-10-06T22:06:35.098Z,102111.16
2022-10-06T22:09:01.998Z,102188.00
2022-10-06T22:11:31.550Z,102205.44
2022-10-06T22:14:01.564Z,102200.09
2022-10-06T22:16:30.383Z,102178.97
2022-10-06T22:18:57.552Z,102163.06
2022-10-06T22:21:28.812Z,102189.00
2022-10-06T22:23:57.345Z,102202.06
2022-10-06T22:26:25.071Z,102151.56
2022-10-06T22:28:53.643Z,102199.41
2022-10-06T22:31:25.565Z,102200.47
2022-10-06T22:33:55.236Z,102202.38
2022-10-06T22:36:21.765Z,102205.13
2022-10-06T22:38:48.298Z,102185.09
2022-10-06T22:41:15.178Z,102185.97
2022-10-06T22:43:42.225Z,102175.50
2022-10-06T22:46:10.246Z,102192.03
2022-10-06T22:48:37.278Z,102189.44
2022-10-06T22:51:04.783Z,102188.75
2022-10-06T22:53:31.617Z,102131.97
2022-10-06T22:55:59.431Z,102139.84
2022-10-06T22:58:26.498Z,102164.19
2022-10-06T23:00:53.561Z,102132.81
2022-10-06T23:03:20.466Z,102171.19
2022-10-06T23:05:55.290Z,102151.16
2022-10-06T23:08:21.826Z,102152.06
2022-10-06T23:10:48.558Z,102146.84
2022-10-06T23:13:15.087Z,102126.72
2022-10-06T23:15:41.610Z,102133.63
2022-10-06T23:18:08.365Z,102088.31
2022-10-06T23:20:35.254Z,102132.81
2022-10-06T23:23:01.950Z,102115.34
2022-10-06T23:25:28.441Z,102138.88
2022-10-06T23:27:55.079Z,102023.00
2022-10-06T23:30:21.730Z,102097.13
2022-10-06T23:32:48.201Z,102134.72
2022-10-06T23:35:14.858Z,102018.81
2022-10-06T23:37:41.780Z,102027.47
2022-10-06T23:40:09.651Z,102005.69
2022-10-06T23:42:36.181Z,102133.81
2022-10-06T23:45:02.699Z,102117.28
2022-10-06T23:47:29.217Z,102147.00
2022-10-06T23:49:55.729Z,102074.66
2022-10-06T23:52:22.302Z,102116.59
2022-10-06T23:54:49.672Z,102114.84
2022-10-06T23:57:16.250Z,102010.19
2022-10-06T23:59:42.718Z,102090.47
